Lombardville, Illinois
Current Conditions -  °F | °C
As of 1:35 PM on Thursday 27 Nov 2014 (Local Time) from KC75 Reporting Station
Broken Clouds Broken Clouds  
Wind Chill: 14°   Ceiling: 2000
Heat Index: 25°   Visibility: 10mi
Dew Point: 16°   Wind: 13mph
Humidity: 68%   Direction: 280°W
Pressure: 30.4"   Gusts: 18mph
Location:  41.1472°N, 89.6399°W
Report Text: KC75 271935Z AUTO 28011G16KT 10SM BKN020 BKN031 M04/M09 A3040 RMK AO2 T10371088
Loading
Personal Weather Stations






























Interactive Weather Map New forecast layout! Learn more

10-Day Weather Forecast

Advertisements
Track Severe Weather on mobile